TimeCST,TemperatureF,Dew PointF,Humidity,Sea Level PressureIn,VisibilityMPH,Wind Direction,Wind SpeedMPH,Gust SpeedMPH,PrecipitationIn,Events,Conditions,WindDirDegrees,DateUTC
12:09 AM,37.4,37.4,100,30.08,4.0,Calm,Calm,-,N/A,,Mostly Cloudy,0,2013-02-06 06:09:00
12:33 AM,37.4,35.6,93,30.08,1.5,Calm,Calm,-,N/A,,Overcast,0,2013-02-06 06:33:00
12:41 AM,37.4,35.6,93,30.08,0.5,Calm,Calm,-,N/A,Fog,Fog,0,2013-02-06 06:41:00
1:53 AM,37.0,36.0,96,30.09,0.2,Calm,Calm,-,N/A,Fog,Fog,0,2013-02-06 07:53:00
2:53 AM,37.0,37.0,100,30.10,0.2,Calm,Calm,-,N/A,Fog,Fog,0,2013-02-06 08:53:00
3:53 AM,37.9,37.9,100,30.12,0.2,Calm,Calm,-,N/A,Fog,Fog,0,2013-02-06 09:53:00
4:53 AM,37.0,36.0,96,30.14,0.2,Calm,Calm,-,N/A,Fog,Fog,0,2013-02-06 10:53:00
5:51 AM,33.8,32.0,93,30.16,2.5,Calm,Calm,-,N/A,,Scattered Clouds,0,2013-02-06 11:51:00
5:53 AM,33.1,32.0,96,30.17,3.0,Calm,Calm,-,N/A,,Scattered Clouds,0,2013-02-06 11:53:00
6:15 AM,32.0,32.0,100,30.16,2.0,Calm,Calm,-,N/A,,Clear,0,2013-02-06 12:15:00
6:25 AM,32.0,30.2,93,30.16,4.0,Calm,Calm,-,N/A,,Clear,0,2013-02-06 12:25:00
6:53 AM,32.0,30.9,96,30.17,7.0,Calm,Calm,-,N/A,,Clear,0,2013-02-06 12:53:00
7:53 AM,37.0,36.0,96,30.19,7.0,Calm,Calm,-,N/A,,Clear,0,2013-02-06 13:53:00
8:53 AM,45.0,41.0,86,30.20,10.0,Calm,Calm,-,N/A,,Clear,0,2013-02-06 14:53:00
9:53 AM,51.1,42.1,71,30.21,10.0,East,4.6,-,N/A,,Clear,100,2013-02-06 15:53:00
10:53 AM,55.9,39.9,55,30.22,10.0,East,4.6,-,N/A,,Clear,80,2013-02-06 16:53:00
11:53 AM,57.9,39.0,49,30.20,10.0,Calm,Calm,-,N/A,,Clear,0,2013-02-06 17:53:00
12:53 PM,60.1,36.0,41,30.17,10.0,Calm,Calm,-,N/A,,Clear,0,2013-02-06 18:53:00
1:53 PM,63.0,37.0,38,30.15,10.0,Variable,4.6,-,N/A,,Clear,0,2013-02-06 19:53:00
2:53 PM,63.0,34.0,34,30.13,10.0,ESE,5.8,-,N/A,,Clear,120,2013-02-06 20:53:00
3:53 PM,63.0,35.1,35,30.13,10.0,Calm,Calm,-,N/A,,Clear,0,2013-02-06 21:53:00
4:53 PM,61.0,37.9,42,30.12,10.0,Calm,Calm,-,N/A,,Clear,0,2013-02-06 22:53:00
5:53 PM,51.1,39.0,63,30.12,10.0,NE,4.6,-,N/A,,Clear,40,2013-02-06 23:53:00
6:53 PM,46.9,37.0,68,30.14,10.0,NE,3.5,-,N/A,,Clear,50,2013-02-07 00:53:00
7:53 PM,53.1,36.0,52,30.13,10.0,ENE,4.6,-,N/A,,Clear,60,2013-02-07 01:53:00
8:53 PM,48.0,39.9,74,30.13,10.0,ENE,5.8,-,N/A,,Clear,70,2013-02-07 02:53:00
9:53 PM,52.0,36.0,54,30.11,10.0,NE,6.9,-,N/A,,Clear,50,2013-02-07 03:53:00
10:53 PM,52.0,35.1,53,30.09,10.0,ENE,5.8,-,N/A,,Clear,70,2013-02-07 04:53:00
11:53 PM,50.0,36.0,59,30.09,10.0,East,4.6,-,N/A,,Clear,100,2013-02-07 05:53:00